Time;durP1;ratioP1;P1;durP2;ratioP2;P2;SDS_P1;SDS_P2;PMS_P1;PMS_P2;Temp;Humidity;BMP_temperature;BMP_pressure;BME280_temperature;BME280_humidity;BME280_pressure;Samples;Min_cycle;Max_cycle;Signal;HPM_P1;HPM_P2
2022/12/24 00:00:13;;;;;;;124.90;83.23;;;;;;;4.47;88.55;99373.94;5072473;28;20600;-54
2022/12/24 00:02:40;;;;;;;134.57;86.60;;;;;;;4.46;88.74;99383.25;5071824;28;21085;-54
2022/12/24 00:05:09;;;;;;;122.47;81.27;;;;;;;4.33;88.83;99388.69;5072121;28;20193;-54
2022/12/24 00:07:36;;;;;;;113.17;74.80;;;;;;;4.26;88.31;99385.84;5072145;28;20666;-54
2022/12/24 00:10:03;;;;;;;114.40;74.90;;;;;;;4.04;89.59;99394.28;5071926;28;20186;-54
2022/12/24 00:12:30;;;;;;;126.93;76.90;;;;;;;3.95;90.42;99391.38;5071982;28;20181;-54
2022/12/24 00:14:57;;;;;;;126.10;82.33;;;;;;;3.85;90.71;99396.88;5071839;28;20212;-53
2022/12/24 00:17:23;;;;;;;121.80;75.63;;;;;;;3.74;91.19;99393.03;5072137;28;20190;-54
2022/12/24 00:19:50;;;;;;;108.90;70.00;;;;;;;3.49;91.50;99380.97;5072104;28;20605;-54
2022/12/24 00:22:18;;;;;;;120.05;83.57;;;;;;;3.68;92.38;99392.81;5071124;28;20433;-55
2022/12/24 00:24:45;;;;;;;91.57;62.23;;;;;;;3.72;92.21;99398.06;5072510;28;20267;-55
2022/12/24 00:27:12;;;;;;;83.27;56.27;;;;;;;3.75;92.33;99397.31;5071881;28;20224;-55
2022/12/24 00:29:39;;;;;;;97.43;60.63;;;;;;;3.74;92.14;99390.50;5072203;28;20187;-55
2022/12/24 00:32:08;;;;;;;79.87;50.97;;;;;;;3.74;92.14;99399.00;5071964;28;20187;-55
2022/12/24 00:34:35;;;;;;;93.75;63.85;;;;;;;3.78;91.98;99388.16;5071153;28;20445;-55
2022/12/24 00:37:02;;;;;;;86.53;58.20;;;;;;;3.86;91.84;99396.09;5071898;28;20189;-55
2022/12/24 00:39:31;;;;;;;76.80;51.30;;;;;;;3.91;91.87;99390.38;5072547;28;20189;-55
2022/12/24 00:41:58;;;;;;;68.23;49.37;;;;;;;3.94;92.34;99393.06;5072129;28;20600;-55
2022/12/24 00:44:24;;;;;;;67.40;45.87;;;;;;;3.94;91.35;99385.44;5071944;28;20211;-54
2022/12/24 00:46:51;;;;;;;73.73;50.83;;;;;;;3.82;91.80;99363.75;5072201;28;20259;-55
2022/12/24 00:49:18;;;;;;;85.23;53.93;;;;;;;3.91;91.31;99387.84;5071751;28;20742;-55
2022/12/24 00:51:45;;;;;;;82.63;53.53;;;;;;;3.82;91.60;99384.06;5072001;28;20268;-55
2022/12/24 00:54:14;;;;;;;71.83;47.80;;;;;;;3.80;92.08;99389.09;5071874;28;20217;-55
2022/12/24 00:56:42;;;;;;;70.43;47.27;;;;;;;3.81;92.09;99378.13;5072152;28;20188;-55
2022/12/24 00:59:08;;;;;;;84.70;50.97;;;;;;;3.85;92.50;99381.63;5071413;28;20181;-55
2022/12/24 01:01:35;;;;;;;77.90;52.33;;;;;;;3.89;91.97;99381.84;5075347;28;20184;-55
2022/12/24 01:06:43;;;;;;;66.53;46.13;;;;;;;3.84;91.34;99385.88;5074998;28;20182;-55
2022/12/24 01:09:10;;;;;;;67.30;45.50;;;;;;;3.83;91.69;99373.09;5075371;28;20185;-55
2022/12/24 01:11:36;;;;;;;72.17;49.10;;;;;;;3.84;91.34;99380.78;5075095;28;20189;-54
2022/12/24 01:14:05;;;;;;;77.20;49.47;;;;;;;3.88;91.42;99381.75;5075070;28;20720;-54
2022/12/24 01:16:31;;;;;;;76.82;57.05;;;;;;;3.87;91.78;99372.41;5074386;28;20434;-55
2022/12/24 01:18:58;;;;;;;70.70;49.37;;;;;;;3.94;91.63;99367.63;5075029;28;20189;-53
2022/12/24 01:21:25;;;;;;;64.60;46.50;;;;;;;3.95;91.11;99363.44;5075264;28;20604;-54
2022/12/24 01:23:52;;;;;;;69.70;46.97;;;;;;;3.96;91.32;99357.53;5075067;28;20196;-53
2022/12/24 01:26:19;;;;;;;68.53;46.80;;;;;;;3.92;91.80;99355.69;5075170;28;20181;-53
2022/12/24 01:28:46;;;;;;;69.47;48.23;;;;;;;3.88;91.83;99351.25;5074722;28;20239;-53
2022/12/24 01:31:16;;;;;;;70.73;50.03;;;;;;;3.90;91.25;99359.84;5074827;28;20271;-54
2022/12/24 01:33:44;;;;;;;77.83;52.23;;;;;;;3.89;91.54;99353.88;5074520;28;20200;-54
2022/12/24 01:36:12;;;;;;;62.17;40.97;;;;;;;3.83;91.82;99356.19;5074786;28;20676;-55
2022/12/24 01:38:40;;;;;;;57.23;41.13;;;;;;;3.83;91.80;99353.63;5074553;28;20183;-54
2022/12/24 01:43:51;;;;;;;60.50;40.73;;;;;;;3.83;90.80;99363.81;5074701;28;20239;-55
2022/12/24 01:46:23;;;;;;;63.23;43.87;;;;;;;3.86;91.19;99358.84;5068287;28;20195;-54
2022/12/24 01:48:56;;;;;;;68.10;51.78;;;;;;;3.80;91.47;99350.97;5063056;28;20450;-55
2022/12/24 01:51:29;;;;;;;69.10;47.53;;;;;;;3.82;91.72;99359.50;5064009;28;20274;-55
2022/12/24 01:54:07;;;;;;;75.80;57.85;;;;;;;3.88;91.45;99353.81;5057541;28;20512;-54
2022/12/24 01:56:37;;;;;;;77.97;50.00;;;;;;;3.81;90.62;99349.31;5054068;28;20213;-54
2022/12/24 01:59:08;;;;;;;62.73;42.10;;;;;;;3.78;90.52;99360.22;5054282;28;20188;-54
2022/12/24 02:01:36;;;;;;;66.13;45.03;;;;;;;3.81;91.24;99357.78;5054184;28;20187;-54
2022/12/24 02:04:12;;;;;;;63.60;46.03;;;;;;;3.75;91.29;99364.28;5053854;28;20197;-55
2022/12/24 02:06:39;;;;;;;71.33;47.13;;;;;;;3.75;91.23;99354.13;5060364;28;20191;-55
2022/12/24 02:09:06;;;;;;;70.83;46.87;;;;;;;3.72;91.29;99349.78;5066113;28;20202;-54
2022/12/24 02:11:36;;;;;;;62.60;46.17;;;;;;;3.73;90.95;99355.75;5059002;28;20194;-54
2022/12/24 02:14:03;;;;;;;63.00;43.03;;;;;;;3.72;90.95;99354.88;5074522;28;20613;-54
2022/12/24 02:16:40;;;;;;;61.00;43.27;;;;;;;3.70;91.00;99346.34;5073965;28;20194;-54
2022/12/24 02:19:25;;;;;;;64.50;44.30;;;;;;;3.60;90.77;99351.81;5074329;28;20580;-54
2022/12/24 02:21:59;;;;;;;66.10;43.87;;;;;;;3.58;91.45;99343.28;5073872;28;20195;-54
2022/12/24 02:25:05;;;;;;;61.40;42.60;;;;;;;3.55;91.80;99344.03;5074300;28;20523;-54
2022/12/24 02:27:54;;;;;;;61.13;41.60;;;;;;;3.57;92.12;99350.03;5072696;28;20225;-54
2022/12/24 02:30:23;;;;;;;57.37;39.43;;;;;;;3.60;91.81;99353.53;5073623;28;20190;-53
2022/12/24 02:33:08;;;;;;;59.33;43.90;;;;;;;3.60;92.22;99348.44;5062043;28;20195;-53
2022/12/24 02:35:40;;;;;;;58.60;41.40;;;;;;;3.65;91.75;99344.41;5053770;28;20235;-53
2022/12/24 02:38:15;;;;;;;58.27;42.00;;;;;;;3.67;92.11;99353.81;5053916;28;20635;-54
2022/12/24 02:40:48;;;;;;;59.53;41.03;;;;;;;3.67;91.52;99361.44;5054121;28;20191;-54
2022/12/24 02:43:19;;;;;;;60.63;41.50;;;;;;;3.60;91.68;99356.91;5054157;28;20591;-54
2022/12/24 02:45:53;;;;;;;59.17;40.90;;;;;;;3.57;91.72;99357.66;5053775;28;20561;-54
2022/12/24 02:48:22;;;;;;;60.87;41.63;;;;;;;3.49;91.99;99369.16;5053725;28;20199;-54
2022/12/24 02:50:57;;;;;;;70.53;45.17;;;;;;;3.51;92.75;99371.78;5053361;28;20632;-54
2022/12/24 02:53:24;;;;;;;70.70;43.30;;;;;;;3.50;92.47;99372.56;5053163;28;20184;-54
2022/12/24 02:56:09;;;;;;;60.07;42.30;;;;;;;3.42;92.55;99353.63;5053097;28;20690;-54
2022/12/24 02:58:48;;;;;;;68.60;44.13;;;;;;;3.46;92.81;99376.66;5051442;28;20189;-54
2022/12/24 03:01:21;;;;;;;72.57;46.47;;;;;;;3.53;92.68;99372.72;5053224;28;20554;-54
2022/12/24 03:04:02;;;;;;;74.15;51.58;;;;;;;3.51;93.05;99376.88;5053200;28;20428;-54
2022/12/24 03:06:40;;;;;;;64.10;45.03;;;;;;;3.51;92.85;99372.66;5053614;28;20263;-54
2022/12/24 03:09:14;;;;;;;61.90;43.90;;;;;;;3.56;92.79;99365.22;5053343;28;20187;-54
2022/12/24 03:11:46;;;;;;;67.27;42.77;;;;;;;3.54;91.87;99366.84;5052996;28;20515;-55
2022/12/24 03:14:14;;;;;;;62.10;43.23;;;;;;;3.54;92.30;99364.28;5053115;28;20191;-54
2022/12/24 03:16:44;;;;;;;64.23;45.03;;;;;;;3.51;91.68;99367.56;5052967;28;20240;-54
2022/12/24 03:19:11;;;;;;;63.70;44.40;;;;;;;3.51;91.91;99356.53;5053426;28;20555;-54
2022/12/24 03:21:41;;;;;;;68.33;45.43;;;;;;;3.47;92.09;99337.75;5053192;28;20188;-54
2022/12/24 03:24:09;;;;;;;65.00;43.37;;;;;;;3.50;92.03;99342.09;5052367;28;20512;-55
2022/12/24 03:26:37;;;;;;;65.27;43.47;;;;;;;3.46;91.73;99341.09;5052763;28;20263;-54
2022/12/24 03:29:06;;;;;;;65.40;43.40;;;;;;;3.44;91.53;99339.28;5053589;28;20222;-54
2022/12/24 03:31:43;;;;;;;58.20;40.03;;;;;;;3.38;91.97;99345.00;5052513;28;20282;-54
2022/12/24 03:34:10;;;;;;;72.70;43.97;;;;;;;3.39;92.04;99348.41;5052795;28;20647;-54
2022/12/24 03:36:37;;;;;;;68.20;46.80;;;;;;;3.38;91.81;99346.66;5052695;28;20188;-55
2022/12/24 03:39:04;;;;;;;76.43;48.90;;;;;;;3.41;92.12;99349.31;5052876;28;20267;-54
2022/12/24 03:41:31;;;;;;;80.88;54.83;;;;;;;3.42;92.31;99339.25;5051818;28;20435;-54
2022/12/24 03:43:58;;;;;;;76.07;50.53;;;;;;;3.49;91.67;99353.03;5052407;28;20193;-54
2022/12/24 03:46:25;;;;;;;78.13;50.37;;;;;;;3.45;91.69;99333.44;5052938;28;20197;-54
2022/12/24 03:48:53;;;;;;;76.00;52.63;;;;;;;3.50;90.68;99347.19;5052909;28;20186;-55
2022/12/24 03:51:22;;;;;;;86.90;52.97;;;;;;;3.47;90.79;99342.84;5052512;28;20212;-55
2022/12/24 03:53:49;;;;;;;79.07;54.60;;;;;;;3.43;91.44;99343.50;5052455;28;20185;-54
2022/12/24 03:56:16;;;;;;;89.10;56.27;;;;;;;3.43;91.29;99337.59;5052144;28;20212;-54
2022/12/24 03:58:42;;;;;;;87.33;55.30;;;;;;;3.40;91.26;99334.91;5052322;28;20240;-54
2022/12/24 04:01:09;;;;;;;94.60;57.40;;;;;;;3.42;91.49;99333.28;5052333;28;20197;-54
2022/12/24 04:03:36;;;;;;;101.63;59.50;;;;;;;3.41;91.34;99336.63;5052275;28;20184;-54
2022/12/24 04:06:07;;;;;;;102.60;58.57;;;;;;;3.38;91.43;99341.56;5052259;28;20193;-55
2022/12/24 04:08:35;;;;;;;99.27;60.57;;;;;;;3.40;91.65;99345.94;5052374;28;20732;-55
2022/12/24 04:11:03;;;;;;;100.07;60.17;;;;;;;3.44;91.28;99341.84;5052060;28;20237;-54
2022/12/24 04:13:30;;;;;;;92.60;58.83;;;;;;;3.43;91.63;99343.50;5052046;28;20189;-54
2022/12/24 04:15:58;;;;;;;86.07;56.60;;;;;;;3.39;91.84;99344.19;5052086;28;20236;-55
2022/12/24 04:18:25;;;;;;;80.07;52.57;;;;;;;3.33;91.30;99348.13;5052006;28;20465;-55
2022/12/24 04:20:52;;;;;;;82.80;52.33;;;;;;;3.33;91.29;99332.91;5052231;28;20198;-55
2022/12/24 04:23:20;;;;;;;89.10;54.10;;;;;;;3.34;91.46;99344.81;5052751;28;20237;-54
2022/12/24 04:25:47;;;;;;;88.90;55.33;;;;;;;3.31;91.70;99345.56;5052120;28;20197;-54
2022/12/24 04:28:15;;;;;;;83.97;53.50;;;;;;;3.32;91.28;99349.84;5051984;28;20220;-54
2022/12/24 04:30:42;;;;;;;89.63;56.77;;;;;;;3.33;91.95;99353.22;5052083;28;20186;-54
2022/12/24 04:33:09;;;;;;;96.73;58.77;;;;;;;3.31;91.90;99354.84;5051900;28;20234;-54
2022/12/24 04:35:40;;;;;;;104.27;68.20;;;;;;;3.32;91.77;99352.38;5054468;28;20222;-55
2022/12/24 04:38:07;;;;;;;116.28;78.80;;;;;;;3.29;92.06;99348.84;5055894;28;20423;-55
2022/12/24 04:40:35;;;;;;;107.97;69.40;;;;;;;3.33;92.40;99350.69;5055831;28;20264;-54
2022/12/24 04:43:02;;;;;;;103.93;65.23;;;;;;;3.32;91.99;99351.50;5055965;28;20190;-54
2022/12/24 04:45:28;;;;;;;98.53;61.57;;;;;;;3.33;92.22;99359.16;5055928;28;20559;-54
2022/12/24 04:47:55;;;;;;;95.77;62.80;;;;;;;3.30;92.06;99364.09;5067147;28;20189;-54
2022/12/24 04:50:22;;;;;;;90.60;59.63;;;;;;;3.27;91.97;99358.06;5075912;28;20188;-54
2022/12/24 04:52:49;;;;;;;94.80;59.13;;;;;;;3.28;92.22;99350.50;5075694;28;20186;-54
2022/12/24 04:55:15;;;;;;;88.83;58.07;;;;;;;3.31;92.49;99355.72;5075664;28;20207;-54
2022/12/24 04:57:44;;;;;;;78.50;53.83;;;;;;;3.35;92.40;99349.09;5075910;28;20193;-53
2022/12/24 05:00:11;;;;;;;90.73;56.67;;;;;;;3.37;92.43;99358.50;5075936;28;20180;-53
2022/12/24 05:02:38;;;;;;;94.57;66.22;;;;;;;3.36;91.88;99355.88;5074802;28;20491;-54
2022/12/24 05:05:06;;;;;;;97.37;61.30;;;;;;;3.39;92.02;99351.81;5075507;28;20192;-54
2022/12/24 05:07:34;;;;;;;91.20;60.77;;;;;;;3.40;91.37;99361.19;5075256;28;20642;-55
2022/12/24 05:10:00;;;;;;;98.13;61.17;;;;;;;3.37;91.66;99357.63;5075830;28;20191;-54
2022/12/24 05:12:27;;;;;;;102.70;60.30;;;;;;;3.37;91.34;99361.03;5075625;28;20181;-54
2022/12/24 05:14:55;;;;;;;102.03;62.17;;;;;;;3.41;91.07;99362.03;5075375;28;20257;-55
2022/12/24 05:17:22;;;;;;;107.85;71.85;;;;;;;3.41;91.71;99359.47;5074833;28;20425;-55
2022/12/24 05:19:49;;;;;;;83.40;56.87;;;;;;;3.49;91.31;99355.59;5075594;28;20184;-54
2022/12/24 05:27:45;;;;;;;100.50;66.00;;;;;;;3.53;91.20;99360.00;5075453;28;20279;-55
2022/12/24 05:30:13;;;;;;;98.27;59.60;;;;;;;3.53;90.23;99365.09;5073726;28;20190;-54
2022/12/24 05:32:40;;;;;;;92.20;59.47;;;;;;;3.47;90.15;99357.19;5073727;28;20180;-54
2022/12/24 05:35:08;;;;;;;61.07;42.80;;;;;;;3.40;91.32;99367.94;5073791;28;20214;-55
2022/12/24 05:37:34;;;;;;;61.23;41.67;;;;;;;3.35;92.22;99370.25;5073963;28;20242;-54
2022/12/24 05:40:01;;;;;;;68.13;49.37;;;;;;;3.35;92.41;99367.72;5073671;28;20239;-55
2022/12/24 05:42:28;;;;;;;96.85;66.85;;;;;;;3.36;92.79;99379.63;5072676;28;20437;-55
2022/12/24 05:44:55;;;;;;;84.50;56.13;;;;;;;3.42;92.43;99371.38;5073343;28;20190;-55
2022/12/24 05:47:23;;;;;;;82.87;53.47;;;;;;;3.43;92.19;99366.34;5073546;28;20196;-55
2022/12/24 05:49:49;;;;;;;76.57;53.23;;;;;;;3.37;91.59;99365.25;5073525;28;20188;-54
2022/12/24 05:52:16;;;;;;;61.00;40.07;;;;;;;3.32;92.21;99366.72;5073581;28;20189;-54
2022/12/24 05:54:43;;;;;;;78.80;50.03;;;;;;;3.33;93.50;99365.91;5073472;28;20256;-55
2022/12/24 05:57:10;;;;;;;76.87;52.77;;;;;;;3.43;93.76;99368.91;5072668;28;20612;-55
2022/12/24 05:59:36;;;;;;;94.40;57.73;;;;;;;3.45;92.85;99376.59;5073420;28;20188;-55
2022/12/24 06:02:03;;;;;;;85.68;63.90;;;;;;;3.53;92.69;99385.41;5071894;28;20432;-55
2022/12/24 06:04:31;;;;;;;83.83;53.10;;;;;;;3.60;91.56;99384.00;5073300;28;20600;-55
2022/12/24 06:06:58;;;;;;;83.27;54.27;;;;;;;3.63;91.35;99387.50;5073218;28;20663;-54
2022/12/24 06:09:25;;;;;;;92.77;59.67;;;;;;;3.58;90.88;99379.72;5073184;28;20204;-54
2022/12/24 06:11:52;;;;;;;69.33;46.63;;;;;;;3.64;91.59;99401.97;5073036;28;20640;-55
2022/12/24 06:14:19;;;;;;;83.00;53.80;;;;;;;3.64;91.40;99396.88;5073009;28;20197;-55
2022/12/24 06:16:45;;;;;;;49.00;33.70;;;;;;;3.65;92.25;99396.09;5073015;28;20224;-55
2022/12/24 06:19:12;;;;;;;92.07;56.90;;;;;;;3.65;92.75;99395.22;5073034;28;20185;-54
2022/12/24 06:21:40;;;;;;;95.70;57.47;;;;;;;3.65;92.18;99392.66;5072940;28;20658;-55
2022/12/24 06:24:08;;;;;;;76.80;51.77;;;;;;;3.67;91.23;99391.94;5072833;28;20184;-55
2022/12/24 06:26:35;;;;;;;104.43;66.67;;;;;;;3.61;91.13;99394.22;5072638;28;20660;-55
2022/12/24 06:29:01;;;;;;;114.53;71.20;;;;;;;3.59;91.06;99405.97;5033339;28;1155708;-54
2022/12/24 06:31:28;;;;;;;117.47;73.73;;;;;;;3.69;90.92;99407.22;5073523;28;20188;-54
2022/12/24 06:33:55;;;;;;;121.13;75.40;;;;;;;3.68;90.35;99401.25;5073607;28;20188;-54
2022/12/24 06:36:24;;;;;;;116.30;70.50;;;;;;;3.69;90.25;99400.47;5073510;28;20209;-54
2022/12/24 06:38:54;;;;;;;108.47;68.80;;;;;;;3.71;90.62;99403.09;5073296;28;20190;-54
2022/12/24 06:41:21;;;;;;;109.20;71.00;;;;;;;3.77;90.60;99399.13;5073798;28;20211;-54
2022/12/24 06:43:50;;;;;;;110.20;72.97;;;;;;;3.83;90.22;99411.22;5073429;28;20187;-53
2022/12/24 06:46:18;;;;;;;97.40;61.60;;;;;;;3.87;90.38;99413.97;5073450;28;20523;-54
2022/12/24 06:48:45;;;;;;;99.73;66.07;;;;;;;4.01;90.05;99407.72;5073168;28;20631;-54
2022/12/24 06:51:12;;;;;;;100.60;62.27;;;;;;;4.33;90.45;99408.16;5073387;28;20190;-54
2022/12/24 06:53:39;;;;;;;58.93;41.07;;;;;;;4.91;90.43;99398.50;5073081;28;20635;-54
2022/12/24 06:56:10;;;;;;;64.83;45.73;;;;;;;5.43;86.99;99383.41;5073063;28;20214;-55
2022/12/24 06:58:37;;;;;;;60.23;42.03;;;;;;;5.64;84.55;99400.28;5072737;28;20202;-54
2022/12/24 07:01:05;;;;;;;51.97;35.80;;;;;;;5.60;83.22;99383.19;5073120;28;20584;-54
2022/12/24 07:03:32;;;;;;;69.00;42.10;;;;;;;5.70;82.10;99394.53;5072323;28;20193;-55
2022/12/24 07:06:00;;;;;;;52.60;37.67;;;;;;;5.33;82.35;99380.53;5055694;28;20199;-56
2022/12/24 07:08:27;;;;;;;62.07;43.33;;;;;;;5.22;82.53;99398.78;5055877;28;20197;-54
2022/12/24 07:10:54;;;;;;;50.93;36.77;;;;;;;5.10;83.01;99394.16;5072973;28;20185;-54
2022/12/24 07:13:22;;;;;;;68.32;51.60;;;;;;;5.11;84.75;99390.78;5071848;28;20774;-54
2022/12/24 07:15:57;;;;;;;83.67;54.27;;;;;;;5.09;84.71;99397.50;5072845;28;20249;-55
2022/12/24 07:18:24;;;;;;;120.57;68.07;;;;;;;5.12;84.42;99402.69;5072471;28;20194;-54
2022/12/24 07:20:50;;;;;;;101.90;65.30;;;;;;;5.20;84.85;99405.50;5072562;28;20186;-55
2022/12/24 07:23:17;;;;;;;112.63;66.10;;;;;;;5.20;84.99;99391.09;5072425;28;20197;-55
2022/12/24 07:25:44;;;;;;;111.60;67.80;;;;;;;5.30;84.70;99405.91;5068803;28;20193;-54
2022/12/24 07:28:11;;;;;;;111.90;69.70;;;;;;;5.31;85.30;99410.19;5071945;28;20699;-55
2022/12/24 07:30:39;;;;;;;119.90;67.63;;;;;;;5.33;84.55;99400.91;5072511;28;20237;-54
2022/12/24 07:33:07;;;;;;;124.83;70.33;;;;;;;5.40;85.00;99399.44;5071452;28;20189;-55
2022/12/24 07:35:33;;;;;;;89.50;58.27;;;;;;;5.46;84.03;99398.81;5052152;28;20353;-54
2022/12/24 07:38:02;;;;;;;80.43;53.37;;;;;;;5.44;84.02;99403.00;5052432;28;20182;-55
2022/12/24 07:40:29;;;;;;;99.87;59.87;;;;;;;5.50;84.99;99401.50;5052558;28;20239;-55
2022/12/24 07:42:56;;;;;;;83.60;53.90;;;;;;;5.60;84.96;99406.13;5052696;28;20193;-56
2022/12/24 07:45:22;;;;;;;77.13;52.03;;;;;;;5.73;84.59;99402.28;5052391;28;20190;-55
2022/12/24 07:47:50;;;;;;;82.73;54.50;;;;;;;5.87;84.31;99408.75;5052500;28;20195;-55
2022/12/24 07:50:18;;;;;;;77.73;52.03;;;;;;;6.04;83.16;99409.31;5052153;28;20187;-55
2022/12/24 07:52:44;;;;;;;78.13;53.80;;;;;;;6.11;83.63;99401.91;5053737;28;20187;-56
2022/12/24 07:55:11;;;;;;;71.20;52.10;;;;;;;6.25;82.81;99408.31;5065080;28;20189;-55
2022/12/24 07:57:38;;;;;;;76.20;50.53;;;;;;;6.38;83.26;99415.53;5070643;28;20210;-56
2022/12/24 08:00:06;;;;;;;71.50;51.40;;;;;;;6.54;82.70;99415.16;5067255;28;20646;-56
2022/12/24 08:02:35;;;;;;;95.22;68.03;;;;;;;6.71;81.18;99423.34;5067958;28;20429;-55
2022/12/24 08:05:03;;;;;;;97.03;61.53;;;;;;;6.84;80.20;99428.00;5071843;28;20179;-55
2022/12/24 08:07:30;;;;;;;94.10;60.33;;;;;;;6.97;80.08;99436.91;5070388;28;20205;-56
2022/12/24 08:09:57;;;;;;;83.87;53.33;;;;;;;7.08;80.11;99436.41;5071238;28;20203;-55
2022/12/24 08:12:23;;;;;;;70.13;46.10;;;;;;;6.77;79.69;99374.16;5071771;28;20194;-54
2022/12/24 08:14:50;;;;;;;59.67;40.00;;;;;;;7.24;79.24;99440.25;5072170;28;20196;-55
2022/12/24 08:17:17;;;;;;;34.80;26.80;;;;;;;7.29;78.17;99428.47;5071950;28;20547;-55
2022/12/24 08:19:44;;;;;;;40.37;27.10;;;;;;;7.45;77.13;99440.84;5072624;28;20213;-55
2022/12/24 08:22:12;;;;;;;38.37;28.63;;;;;;;7.48;77.07;99448.59;5071645;28;20736;-55
2022/12/24 08:24:39;;;;;;;42.77;32.30;;;;;;;7.59;76.92;99452.31;5070962;28;20434;-54
2022/12/24 08:27:05;;;;;;;43.73;31.10;;;;;;;7.71;76.57;99446.66;5071283;28;20190;-54
2022/12/24 08:29:32;;;;;;;42.37;31.07;;;;;;;7.82;75.89;99446.94;5071680;28;20192;-54
2022/12/24 08:31:59;;;;;;;39.73;29.07;;;;;;;7.88;75.19;99447.09;5071719;28;20539;-54
2022/12/24 08:34:27;;;;;;;42.87;30.37;;;;;;;7.88;75.07;99439.44;5071868;28;20199;-54
2022/12/24 08:36:53;;;;;;;48.83;34.13;;;;;;;7.96;74.76;99445.59;5071525;28;20750;-54
2022/12/24 08:39:22;;;;;;;46.67;34.60;;;;;;;7.99;74.27;99432.91;5071430;28;20183;-55
2022/12/24 08:41:49;;;;;;;51.70;37.83;;;;;;;8.04;74.09;99441.56;5065301;28;20188;-54
2022/12/24 08:44:15;;;;;;;58.80;37.37;;;;;;;8.02;74.10;99441.50;5068201;28;20187;-54
2022/12/24 08:46:42;;;;;;;57.10;41.40;;;;;;;7.99;74.22;99436.34;5070221;28;20272;-56
2022/12/24 08:49:09;;;;;;;56.20;41.40;;;;;;;7.95;74.58;99433.63;5071267;28;20507;-55
2022/12/24 08:51:36;;;;;;;56.30;43.67;;;;;;;7.93;74.52;99435.28;5071271;28;20199;-55
2022/12/24 08:54:03;;;;;;;58.73;42.37;;;;;;;7.88;75.11;99434.31;5071600;28;20195;-55
2022/12/24 08:56:33;;;;;;;65.60;44.60;;;;;;;7.77;75.42;99425.50;5071421;28;20221;-56
2022/12/24 08:59:00;;;;;;;73.70;45.70;;;;;;;7.79;75.34;99422.16;5072092;28;20358;-55
2022/12/24 09:01:26;;;;;;;58.57;44.93;;;;;;;7.77;75.96;99418.69;5071907;28;20260;-55
2022/12/24 09:03:53;;;;;;;59.00;41.67;;;;;;;7.84;75.12;99420.56;5071816;28;20198;-55
2022/12/24 09:06:20;;;;;;;62.37;45.07;;;;;;;7.86;75.72;99418.03;5071641;28;20183;-55
2022/12/24 09:08:47;;;;;;;62.73;43.97;;;;;;;7.82;75.30;99414.56;5071672;28;20277;-54
2022/12/24 09:11:17;;;;;;;57.50;41.87;;;;;;;7.63;75.13;99382.53;5071052;28;20180;-54
2022/12/24 09:13:45;;;;;;;56.17;39.97;;;;;;;7.92;74.54;99419.06;5071205;28;20191;-55
2022/12/24 09:16:12;;;;;;;64.20;41.13;;;;;;;8.02;74.41;99425.31;5071203;28;20248;-55
2022/12/24 09:18:40;;;;;;;64.57;44.60;;;;;;;8.11;74.21;99410.16;5071374;28;20183;-55
2022/12/24 09:21:08;;;;;;;61.57;46.70;;;;;;;8.17;74.12;99407.75;5072653;28;20189;-55
2022/12/24 09:23:38;;;;;;;62.90;45.80;;;;;;;8.33;73.33;99412.44;5074442;28;20186;-54
2022/12/24 09:26:05;;;;;;;58.93;44.20;;;;;;;8.48;72.67;99405.13;5075105;28;20203;-59
2022/12/24 09:28:32;;;;;;;52.43;41.17;;;;;;;8.66;71.81;99404.66;5075387;28;20337;-55
2022/12/24 09:31:02;;;;;;;55.63;39.07;;;;;;;8.47;70.74;99348.75;5074392;28;20630;-54
2022/12/24 09:33:32;;;;;;;64.57;48.37;;;;;;;8.94;70.76;99401.88;5074641;28;20191;-56
2022/12/24 09:36:00;;;;;;;64.33;49.17;;;;;;;8.99;70.82;99391.72;5074389;28;20188;-55
2022/12/24 09:38:27;;;;;;;59.77;45.80;;;;;;;9.07;70.15;99400.41;5073807;28;20506;-56
2022/12/24 09:40:55;;;;;;;66.13;48.90;;;;;;;9.05;69.30;99371.34;5075353;28;20198;-56
2022/12/24 09:43:24;;;;;;;67.93;47.33;;;;;;;9.15;69.24;99369.00;5074646;28;20248;-56
2022/12/24 09:46:05;;;;;;;42.80;31.97;;;;;;;9.33;68.32;99379.63;5074508;28;20191;-55
2022/12/24 09:48:35;;;;;;;42.53;29.92;;;;;;;9.42;68.18;99378.94;5074046;28;20462;-56
2022/12/24 09:51:07;;;;;;;38.90;27.57;;;;;;;9.41;67.43;99372.06;5073454;28;20199;-56
2022/12/24 09:53:40;;;;;;;39.17;28.27;;;;;;;9.47;67.79;99367.94;5073163;28;20187;-55
2022/12/24 09:56:13;;;;;;;37.77;30.73;;;;;;;9.52;67.07;99370.56;5073287;28;20367;-56
2022/12/24 09:58:43;;;;;;;38.70;30.73;;;;;;;9.73;66.18;99370.94;5074401;28;20187;-55
2022/12/24 10:01:15;;;;;;;50.67;38.57;;;;;;;9.91;65.53;99366.13;5074129;28;20195;-55
2022/12/24 10:03:43;;;;;;;52.30;39.30;;;;;;;10.02;65.76;99367.19;5072215;28;20191;-55
2022/12/24 10:06:14;;;;;;;62.00;44.40;;;;;;;10.15;65.28;99357.13;5063868;28;20598;-55
2022/12/24 10:08:52;;;;;;;63.83;46.50;;;;;;;10.13;64.21;99353.66;5067907;28;20203;-55
2022/12/24 10:11:27;;;;;;;61.80;46.27;;;;;;;10.21;64.36;99357.22;5071425;28;20184;-55
2022/12/24 10:14:08;;;;;;;64.33;44.53;;;;;;;10.25;64.03;99351.28;5072120;28;20312;-56
2022/12/24 10:16:48;;;;;;;63.33;44.87;;;;;;;10.23;63.43;99348.69;5071815;28;20216;-55
2022/12/24 10:19:21;;;;;;;65.20;43.73;;;;;;;10.23;63.41;99335.00;5071412;28;20611;-55
2022/12/24 10:22:00;;;;;;;55.87;41.77;;;;;;;10.34;63.25;99344.59;5073550;28;20191;-56
2022/12/24 10:24:34;;;;;;;57.37;43.17;;;;;;;10.32;62.60;99337.69;5073730;28;20658;-56
2022/12/24 10:27:06;;;;;;;58.90;41.70;;;;;;;10.15;63.19;99339.16;5073580;28;20244;-56
2022/12/24 10:29:36;;;;;;;58.40;40.23;;;;;;;10.06;63.05;99335.56;5073499;28;20199;-57
2022/12/24 10:32:16;;;;;;;52.73;40.13;;;;;;;10.15;63.55;99328.88;5057211;28;20258;-56
2022/12/24 10:34:46;;;;;;;52.07;39.50;;;;;;;10.20;63.41;99342.66;5053468;28;20187;-56
2022/12/24 10:37:16;;;;;;;46.63;36.63;;;;;;;10.19;63.04;99334.06;5053395;28;20216;-56
2022/12/24 10:39:43;;;;;;;46.57;35.93;;;;;;;10.26;63.09;99335.03;5053938;28;20185;-55
2022/12/24 10:42:13;;;;;;;51.78;39.85;;;;;;;10.09;63.33;99286.84;5053650;28;20427;-55
2022/12/24 10:44:40;;;;;;;44.57;36.27;;;;;;;10.45;62.62;99331.91;5053126;28;20203;-57
2022/12/24 10:47:10;;;;;;;51.47;37.43;;;;;;;10.69;62.28;99324.50;5052997;28;20765;-55
2022/12/24 10:49:44;;;;;;;50.43;34.83;;;;;;;10.86;61.61;99327.28;5053035;28;20183;-56
2022/12/24 10:52:14;;;;;;;44.27;32.43;;;;;;;10.95;61.12;99330.84;5052972;28;20551;-57
2022/12/24 10:55:06;;;;;;;41.67;31.93;;;;;;;10.95;60.58;99330.84;5053055;28;20211;-57
2022/12/24 10:57:34;;;;;;;41.80;31.37;;;;;;;10.98;60.50;99305.19;5064349;28;20215;-57
2022/12/24 11:00:01;;;;;;;40.87;31.60;;;;;;;10.92;60.24;99332.50;5073003;28;20638;-57
2022/12/24 11:02:32;;;;;;;42.53;32.10;;;;;;;11.01;59.54;99318.06;5073241;28;20188;-57
2022/12/24 11:05:00;;;;;;;38.87;30.87;;;;;;;11.12;59.41;99313.06;5073391;28;20253;-56
2022/12/24 11:07:28;;;;;;;38.88;32.58;;;;;;;11.27;58.46;99316.66;5071815;28;20518;-56
2022/12/24 11:09:57;;;;;;;45.43;31.17;;;;;;;11.43;58.58;99327.94;5072670;28;20650;-56
2022/12/24 11:12:26;;;;;;;44.17;32.07;;;;;;;11.53;58.00;99331.47;5072632;28;20179;-56
2022/12/24 11:15:02;;;;;;;48.27;35.40;;;;;;;11.60;57.60;99323.81;5072791;28;20188;-56
2022/12/24 11:17:30;;;;;;;52.83;37.20;;;;;;;11.63;57.70;99326.44;5072477;28;20310;-57
2022/12/24 11:19:58;;;;;;;50.20;37.60;;;;;;;11.61;57.31;99329.84;5072101;28;20184;-57
2022/12/24 11:22:27;;;;;;;50.27;37.10;;;;;;;11.58;57.49;99315.25;5072515;28;20218;-55
2022/12/24 11:25:00;;;;;;;49.37;37.03;;;;;;;11.69;58.03;99320.50;5072230;28;20187;-56
2022/12/24 11:27:39;;;;;;;54.43;41.53;;;;;;;11.63;58.36;99310.13;5071970;28;20582;-56
2022/12/24 11:30:29;;;;;;;54.30;41.73;;;;;;;11.63;57.92;99321.28;5072189;28;20223;-55
2022/12/24 11:33:27;;;;;;;53.93;41.10;;;;;;;11.73;58.17;99311.94;5067056;28;20183;-55
2022/12/24 11:36:01;;;;;;;64.57;46.47;;;;;;;11.66;58.06;99294.72;4981926;28;20866;-55
2022/12/24 11:38:31;;;;;;;55.20;42.33;;;;;;;11.81;57.98;99303.44;4995460;28;20206;-54
2022/12/24 11:41:01;;;;;;;62.13;44.20;;;;;;;11.73;58.31;99281.94;5000005;28;20447;-55